createdAt,value
2023-05-07T00:00:23.832Z,13.11
2023-05-07T00:17:03.284Z,14.25
2023-05-07T00:20:40.519Z,13.82
2023-05-07T01:15:05.333Z,12.26
2023-05-07T01:22:46.682Z,12.13
2023-05-07T01:26:12.140Z,11.73
2023-05-07T01:29:57.375Z,12.36
2023-05-07T01:33:59.056Z,12.28
2023-05-07T01:37:32.282Z,13.09
2023-05-07T01:54:42.208Z,11.47
2023-05-07T02:01:01.415Z,11.61
2023-05-07T02:04:25.541Z,11.39
2023-05-07T02:11:48.523Z,11.97
2023-05-07T02:16:07.008Z,11.86
2023-05-07T02:26:28.042Z,12.14
2023-05-07T02:57:28.117Z,11.42
2023-05-07T04:03:49.176Z,12.50
2023-05-07T04:32:48.960Z,13.78
2023-05-07T04:39:25.632Z,14.60
2023-05-07T04:42:01.596Z,15.75
2023-05-07T04:44:36.089Z,16.19
2023-05-07T04:47:07.349Z,16.39
2023-05-07T04:49:38.256Z,16.51
2023-05-07T04:52:41.852Z,16.86
2023-05-07T04:55:09.908Z,16.72
2023-05-07T04:58:25.755Z,16.93
2023-05-07T05:16:34.726Z,17.08
2023-05-07T05:19:42.721Z,17.47
2023-05-07T05:31:15.986Z,17.36
2023-05-07T05:38:18.866Z,18.17
2023-05-07T05:50:12.010Z,19.62
2023-05-07T05:52:48.629Z,19.44
2023-05-07T05:55:20.322Z,19.71
2023-05-07T05:57:58.711Z,20.27
2023-05-07T06:00:44.558Z,20.87
2023-05-07T06:03:20.564Z,20.77
2023-05-07T06:05:54.844Z,21.17
2023-05-07T06:08:37.110Z,20.94
2023-05-07T06:11:07.316Z,21.28
2023-05-07T06:13:40.017Z,22.11
2023-05-07T06:16:10.844Z,21.62
2023-05-07T06:18:42.898Z,21.97
2023-05-07T06:21:12.450Z,21.54
2023-05-07T06:23:42.094Z,21.88
2023-05-07T06:26:16.143Z,22.87
2023-05-07T06:28:59.733Z,22.09
2023-05-07T06:31:33.276Z,21.25
2023-05-07T06:34:13.214Z,21.69
2023-05-07T06:39:48.032Z,22.03
2023-05-07T06:42:17.158Z,21.34
2023-05-07T06:44:47.122Z,21.70
2023-05-07T06:47:16.560Z,21.96
2023-05-07T06:49:47.058Z,22.29
2023-05-07T06:52:15.835Z,21.67
2023-05-07T06:54:44.415Z,22.06
2023-05-07T06:57:32.877Z,21.38
2023-05-07T07:00:00.829Z,20.81
2023-05-07T07:02:30.494Z,21.30
2023-05-07T07:04:58.652Z,21.44
2023-05-07T07:07:26.720Z,21.61
2023-05-07T07:10:02.145Z,21.55
2023-05-07T07:12:31.070Z,21.28
2023-05-07T07:14:58.808Z,21.18
2023-05-07T07:17:30.860Z,21.62
2023-05-07T07:19:58.560Z,21.32
2023-05-07T07:22:27.834Z,21.15
2023-05-07T07:24:56.397Z,21.34
2023-05-07T07:27:39.198Z,21.27
2023-05-07T07:30:11.027Z,21.20
2023-05-07T07:32:41.843Z,21.39
2023-05-07T07:35:11.236Z,21.57
2023-05-07T07:37:39.783Z,21.67
2023-05-07T07:40:08.331Z,21.17
2023-05-07T07:42:41.961Z,21.99
2023-05-07T07:45:18.669Z,22.23
2023-05-07T07:47:50.040Z,22.24
2023-05-07T07:50:28.111Z,22.36
2023-05-07T07:53:15.225Z,22.25
2023-05-07T07:56:05.651Z,21.80
2023-05-07T07:58:40.450Z,21.23
2023-05-07T08:01:08.611Z,21.86
2023-05-07T08:03:37.066Z,21.34
2023-05-07T08:06:05.066Z,21.66
2023-05-07T08:08:33.642Z,21.42
2023-05-07T08:11:02.163Z,21.05
2023-05-07T08:13:33.040Z,20.60
2023-05-07T08:16:03.611Z,20.81
2023-05-07T08:18:35.609Z,21.16
2023-05-07T08:21:22.191Z,20.88
2023-05-07T08:24:13.615Z,20.88
2023-05-07T08:26:44.933Z,20.59
2023-05-07T08:29:14.949Z,19.97
2023-05-07T08:31:43.050Z,20.43
2023-05-07T08:34:10.952Z,20.79
2023-05-07T08:36:39.774Z,20.78
2023-05-07T08:39:10.707Z,20.89
2023-05-07T08:41:39.996Z,21.32
2023-05-07T08:44:10.334Z,21.07
2023-05-07T08:46:40.661Z,21.76
2023-05-07T08:49:08.912Z,21.21
2023-05-07T08:51:37.363Z,21.40
2023-05-07T08:54:06.170Z,21.93
2023-05-07T08:56:38.012Z,22.07
2023-05-07T08:59:05.876Z,21.92
2023-05-07T09:01:38.818Z,22.40
2023-05-07T09:04:10.552Z,23.08
2023-05-07T09:06:43.044Z,23.06
2023-05-07T09:09:11.261Z,23.19
2023-05-07T09:11:42.406Z,23.96
2023-05-07T09:14:23.192Z,23.44
2023-05-07T09:16:54.749Z,23.75
2023-05-07T09:19:54.779Z,24.04
2023-05-07T09:22:26.319Z,24.50
2023-05-07T09:24:54.830Z,23.64
2023-05-07T09:27:23.169Z,24.30
2023-05-07T09:29:56.582Z,25.17
2023-05-07T09:32:24.908Z,25.48
2023-05-07T09:35:11.257Z,24.97
2023-05-07T09:37:53.222Z,25.43
2023-05-07T09:40:35.891Z,26.44
2023-05-07T09:43:14.305Z,26.19
2023-05-07T09:45:54.745Z,25.08
2023-05-07T09:48:44.766Z,25.40
2023-05-07T09:51:38.005Z,25.04
2023-05-07T09:54:05.851Z,24.84
2023-05-07T09:56:34.719Z,24.70
2023-05-07T09:59:05.429Z,24.38
2023-05-07T10:01:35.026Z,23.97
2023-05-07T10:04:05.462Z,23.55
2023-05-07T10:06:39.425Z,23.36
2023-05-07T10:09:09.162Z,23.01
2023-05-07T10:11:37.756Z,22.82
2023-05-07T10:14:11.347Z,22.06
2023-05-07T10:16:42.027Z,21.85
2023-05-07T10:19:12.447Z,22.37
2023-05-07T10:21:47.668Z,22.23
2023-05-07T10:24:18.919Z,22.38
2023-05-07T10:26:55.769Z,22.81
2023-05-07T10:29:52.959Z,22.65
2023-05-07T10:32:40.937Z,22.90
2023-05-07T10:35:13.936Z,22.87
2023-05-07T10:37:45.811Z,23.08
2023-05-07T10:40:26.363Z,23.33
2023-05-07T10:43:03.718Z,23.01
2023-05-07T10:45:32.269Z,22.95
2023-05-07T10:48:28.820Z,22.79
2023-05-07T10:51:18.917Z,23.13
2023-05-07T10:54:11.240Z,23.35
2023-05-07T10:56:57.574Z,23.39
2023-05-07T11:00:00.303Z,25.17
2023-05-07T11:03:06.839Z,25.46
2023-05-07T11:05:38.558Z,27.00
2023-05-07T11:08:07.180Z,27.34
2023-05-07T11:10:52.424Z,28.27
2023-05-07T11:13:42.661Z,27.62
2023-05-07T11:16:31.390Z,27.22
2023-05-07T11:19:00.266Z,27.39
2023-05-07T11:21:41.375Z,27.83
2023-05-07T11:24:54.877Z,28.22
2023-05-07T11:27:44.216Z,28.15
2023-05-07T11:30:20.925Z,27.68
2023-05-07T11:32:50.217Z,27.12
2023-05-07T11:38:29.273Z,26.19
2023-05-07T11:41:12.239Z,26.81
2023-05-07T11:46:53.968Z,26.31
2023-05-07T11:49:22.105Z,26.30
2023-05-07T11:52:04.384Z,26.98
2023-05-07T11:55:28.283Z,26.86
2023-05-07T11:58:01.687Z,26.73
2023-05-07T12:00:37.450Z,26.62
2023-05-07T12:03:42.877Z,27.43
2023-05-07T12:06:21.479Z,28.13
2023-05-07T12:09:00.498Z,26.69
2023-05-07T12:11:35.449Z,26.74
2023-05-07T12:14:09.482Z,26.62
2023-05-07T12:17:00.096Z,25.94
2023-05-07T12:22:23.933Z,25.62
2023-05-07T12:24:58.906Z,25.54
2023-05-07T12:27:27.209Z,26.19
2023-05-07T12:29:55.456Z,27.38
2023-05-07T12:32:23.459Z,27.16
2023-05-07T12:35:04.134Z,26.90
2023-05-07T12:38:07.103Z,26.90
2023-05-07T12:41:00.185Z,25.45
2023-05-07T12:43:40.442Z,24.84
2023-05-07T12:46:30.218Z,25.31
2023-05-07T12:49:14.633Z,26.02
2023-05-07T12:51:48.049Z,25.38
2023-05-07T12:54:32.917Z,25.43
2023-05-07T12:57:20.935Z,26.01
2023-05-07T13:00:01.346Z,25.94
2023-05-07T13:02:38.793Z,26.75
2023-05-07T13:05:23.200Z,26.14
2023-05-07T13:07:57.726Z,24.94
2023-05-07T13:10:26.254Z,24.31
2023-05-07T13:12:57.654Z,23.84
2023-05-07T13:15:27.051Z,24.90
2023-05-07T13:17:56.828Z,25.26
2023-05-07T13:20:30.013Z,25.34
2023-05-07T13:23:13.824Z,26.00
2023-05-07T13:25:42.153Z,25.97
2023-05-07T13:28:11.601Z,25.58
2023-05-07T13:30:39.647Z,25.50
2023-05-07T13:33:07.776Z,25.08
2023-05-07T13:35:37.958Z,25.25
2023-05-07T13:38:19.777Z,25.66
2023-05-07T13:41:00.861Z,25.94
2023-05-07T13:43:31.341Z,26.13
2023-05-07T13:46:05.296Z,26.82
2023-05-07T13:48:43.198Z,26.90
2023-05-07T13:51:21.628Z,25.98
2023-05-07T13:53:53.560Z,25.06
2023-05-07T13:56:31.357Z,24.98
2023-05-07T13:59:01.848Z,25.15
2023-05-07T14:01:35.053Z,25.69
2023-05-07T14:04:07.099Z,25.88
2023-05-07T14:06:35.156Z,24.74
2023-05-07T14:09:03.407Z,25.19
2023-05-07T14:11:36.285Z,25.10
2023-05-07T14:14:05.017Z,24.79
2023-05-07T14:16:39.313Z,24.84
2023-05-07T14:19:07.576Z,25.47
2023-05-07T14:21:41.129Z,24.85
2023-05-07T14:24:10.873Z,25.37
2023-05-07T14:26:38.841Z,24.95
2023-05-07T14:29:11.428Z,24.93
2023-05-07T14:31:56.990Z,24.97
2023-05-07T14:34:26.286Z,24.86
2023-05-07T14:36:55.046Z,25.05
2023-05-07T14:39:22.910Z,24.94
2023-05-07T14:41:51.068Z,24.77
2023-05-07T14:44:19.944Z,24.62
2023-05-07T14:46:50.068Z,24.62
2023-05-07T14:49:25.690Z,23.81
2023-05-07T14:51:53.439Z,24.40
2023-05-07T14:54:49.784Z,24.41
2023-05-07T14:57:23.151Z,23.84
2023-05-07T14:59:54.073Z,23.83
2023-05-07T15:02:22.179Z,23.28
2023-05-07T15:04:51.099Z,23.48
2023-05-07T15:07:40.289Z,23.23
2023-05-07T15:10:08.558Z,23.08
2023-05-07T15:12:36.784Z,23.20
2023-05-07T15:15:04.820Z,23.40
2023-05-07T15:17:32.718Z,23.63
2023-05-07T15:20:01.028Z,23.19
2023-05-07T15:22:29.882Z,22.95
2023-05-07T15:24:58.469Z,23.20
2023-05-07T15:27:29.833Z,23.34
2023-05-07T15:30:16.964Z,22.93
2023-05-07T15:32:47.182Z,23.14
2023-05-07T15:35:19.117Z,23.12
2023-05-07T15:37:58.327Z,23.31
2023-05-07T15:40:26.520Z,23.56
2023-05-07T15:43:31.726Z,22.18
2023-05-07T15:46:07.751Z,22.49
2023-05-07T15:48:53.114Z,22.34
2023-05-07T15:51:25.547Z,21.87
2023-05-07T15:53:59.848Z,22.14
2023-05-07T15:56:34.455Z,22.26
2023-05-07T15:59:02.730Z,22.33
2023-05-07T16:01:30.457Z,22.18
2023-05-07T16:03:58.976Z,22.26
2023-05-07T16:06:28.075Z,22.23
2023-05-07T16:08:59.673Z,21.76
2023-05-07T16:11:34.623Z,21.80
2023-05-07T16:14:07.283Z,21.41
2023-05-07T16:16:44.356Z,21.66
2023-05-07T16:19:15.022Z,21.40
2023-05-07T16:21:47.044Z,21.17
2023-05-07T16:24:18.508Z,20.50
2023-05-07T16:26:48.201Z,20.64
2023-05-07T16:29:22.476Z,20.63
2023-05-07T16:31:54.634Z,20.97
2023-05-07T16:34:28.698Z,20.78
2023-05-07T16:37:00.832Z,20.75
2023-05-07T16:39:37.761Z,20.39
2023-05-07T16:42:06.255Z,20.27
2023-05-07T16:44:34.404Z,20.59
2023-05-07T16:47:02.500Z,20.18
2023-05-07T16:49:30.832Z,19.95
2023-05-07T16:51:58.690Z,20.03
2023-05-07T16:54:26.608Z,20.46
2023-05-07T16:56:58.273Z,20.30
2023-05-07T16:59:29.769Z,19.98
2023-05-07T17:01:59.220Z,19.65
2023-05-07T17:04:28.633Z,20.01
2023-05-07T17:06:59.979Z,20.07
2023-05-07T17:09:29.152Z,19.60
2023-05-07T17:11:57.039Z,19.37
2023-05-07T17:14:24.822Z,19.22
2023-05-07T17:16:56.433Z,19.46
2023-05-07T17:19:31.382Z,19.28
2023-05-07T17:22:01.940Z,19.11
2023-05-07T17:24:35.012Z,18.86
2023-05-07T17:27:12.518Z,18.55
2023-05-07T17:29:47.364Z,18.32
2023-05-07T17:32:40.870Z,18.30
2023-05-07T17:35:10.695Z,18.48
2023-05-07T17:37:47.300Z,18.20
2023-05-07T17:40:18.621Z,17.98
2023-05-07T17:42:56.213Z,18.14
2023-05-07T17:45:30.070Z,17.72
2023-05-07T17:48:01.054Z,17.73
2023-05-07T17:50:36.792Z,17.75
2023-05-07T17:53:12.111Z,17.50
2023-05-07T17:55:43.952Z,17.47
2023-05-07T17:58:20.061Z,17.71
2023-05-07T18:00:48.725Z,17.20
2023-05-07T18:03:17.007Z,17.29
2023-05-07T18:08:51.540Z,17.32
2023-05-07T18:11:22.447Z,17.05
2023-05-07T18:13:50.175Z,16.56
2023-05-07T18:16:19.500Z,16.86
2023-05-07T18:18:48.984Z,16.36
2023-05-07T18:22:00.966Z,16.77
2023-05-07T18:27:45.477Z,16.30
2023-05-07T18:30:17.109Z,16.21
2023-05-07T18:32:52.056Z,16.59
2023-05-07T18:35:24.257Z,16.62
2023-05-07T18:37:53.897Z,16.26
2023-05-07T18:40:22.308Z,16.08
2023-05-07T18:42:50.390Z,15.92
2023-05-07T18:45:22.117Z,15.83
2023-05-07T18:47:51.006Z,15.85
2023-05-07T18:50:19.209Z,15.98
2023-05-07T18:52:49.988Z,15.73
2023-05-07T18:55:20.219Z,15.71
2023-05-07T18:57:50.435Z,15.70
2023-05-07T19:00:19.535Z,15.56
2023-05-07T19:02:52.150Z,15.75
2023-05-07T19:05:30.969Z,15.91
2023-05-07T19:08:07.630Z,15.75
2023-05-07T19:10:39.771Z,15.60
2023-05-07T19:13:07.542Z,15.16
2023-05-07T19:15:35.907Z,14.95
2023-05-07T19:18:04.095Z,15.13
2023-05-07T19:20:32.206Z,14.94
2023-05-07T19:23:00.600Z,14.81
2023-05-07T19:25:28.329Z,15.02
2023-05-07T19:27:58.685Z,14.75
2023-05-07T19:30:37.824Z,15.74
2023-05-07T19:33:11.466Z,16.30
2023-05-07T19:36:07.651Z,15.35
2023-05-07T19:39:08.221Z,15.67
2023-05-07T19:44:38.360Z,15.36
2023-05-07T19:47:10.670Z,15.41
2023-05-07T19:50:21.180Z,15.53
2023-05-07T19:53:02.878Z,15.39
2023-05-07T19:56:08.848Z,15.68
2023-05-07T19:59:03.439Z,16.04
2023-05-07T20:01:43.466Z,15.97
2023-05-07T20:04:47.480Z,15.88
2023-05-07T20:07:51.375Z,15.16
2023-05-07T20:10:49.615Z,15.17
2023-05-07T20:13:44.161Z,14.63
2023-05-07T20:16:15.534Z,14.87
2023-05-07T20:18:51.109Z,14.38
2023-05-07T20:21:36.122Z,14.74
2023-05-07T20:34:25.983Z,14.31
2023-05-07T20:36:54.395Z,14.41
2023-05-07T20:39:44.853Z,14.26
2023-05-07T20:42:14.522Z,14.63
2023-05-07T20:44:43.895Z,14.42
2023-05-07T20:47:11.784Z,14.29
2023-05-07T20:49:40.634Z,14.30
2023-05-07T20:52:09.970Z,14.20
2023-05-07T20:54:44.365Z,14.45
2023-05-07T20:57:12.683Z,14.36
2023-05-07T20:59:40.863Z,14.34
2023-05-07T21:02:11.646Z,14.25
2023-05-07T21:04:44.361Z,14.02
2023-05-07T21:07:13.580Z,14.13
2023-05-07T21:09:42.637Z,13.83
2023-05-07T21:12:11.517Z,13.88
2023-05-07T21:14:40.620Z,13.56
2023-05-07T21:17:08.867Z,13.83
2023-05-07T21:19:36.748Z,13.98
2023-05-07T21:22:06.341Z,13.86
2023-05-07T21:24:34.430Z,13.48
2023-05-07T21:27:03.032Z,13.28
2023-05-07T21:29:30.823Z,13.13
2023-05-07T21:31:59.214Z,13.17
2023-05-07T21:34:27.126Z,13.26
2023-05-07T21:36:54.865Z,13.45
2023-05-07T21:39:23.017Z,13.26
2023-05-07T21:41:51.628Z,13.27
2023-05-07T21:44:43.251Z,13.10
2023-05-07T21:47:11.819Z,13.12
2023-05-07T21:49:41.697Z,13.13
2023-05-07T21:52:13.032Z,12.93
2023-05-07T21:54:41.151Z,12.76
2023-05-07T21:57:09.142Z,12.89
2023-05-07T21:59:37.737Z,13.16
2023-05-07T22:02:06.078Z,13.52
2023-05-07T22:04:34.285Z,12.75
2023-05-07T22:07:02.123Z,12.66
2023-05-07T22:09:29.908Z,12.44
2023-05-07T22:11:57.952Z,12.64
2023-05-07T22:14:25.545Z,12.21
2023-05-07T22:17:20.353Z,11.84
2023-05-07T22:19:50.289Z,11.60
2023-05-07T22:22:19.393Z,11.15
2023-05-07T22:24:47.647Z,11.20
2023-05-07T22:27:38.618Z,11.22
2023-05-07T22:30:07.113Z,10.85
2023-05-07T22:32:35.147Z,10.75
2023-05-07T22:35:25.211Z,10.25
2023-05-07T22:37:53.306Z,10.27
2023-05-07T22:40:25.962Z,11.21
2023-05-07T22:42:56.188Z,11.54
2023-05-07T22:45:23.825Z,11.35
2023-05-07T22:47:51.471Z,11.62
2023-05-07T22:50:19.507Z,10.78
2023-05-07T22:52:47.144Z,10.28
2023-05-07T22:55:15.012Z,10.47
2023-05-07T22:57:45.838Z,10.99
2023-05-07T23:00:14.028Z,10.90
2023-05-07T23:02:42.039Z,10.63
2023-05-07T23:05:10.547Z,10.59
2023-05-07T23:07:38.550Z,10.76
2023-05-07T23:10:06.528Z,10.57
2023-05-07T23:12:36.120Z,11.45
2023-05-07T23:17:58.667Z,10.31
2023-05-07T23:20:46.369Z,10.69
2023-05-07T23:23:14.500Z,11.22
2023-05-07T23:25:42.254Z,11.33
2023-05-07T23:28:10.035Z,11.05
2023-05-07T23:30:38.138Z,10.13
2023-05-07T23:33:06.201Z,10.37
2023-05-07T23:35:33.960Z,10.30
2023-05-07T23:38:02.050Z,9.17
2023-05-07T23:40:29.925Z,9.05
2023-05-07T23:43:01.249Z,9.19
2023-05-07T23:45:39.671Z,8.96
2023-05-07T23:48:17.062Z,9.09
2023-05-07T23:50:46.383Z,9.15
2023-05-07T23:53:14.012Z,9.25
2023-05-07T23:55:41.660Z,8.63
2023-05-07T23:58:10.150Z,8.66
